TLSO2: Arkansas River, Tulsa, OK

Data processed at Fri Jun 15 2018 23:47


All information presented herein is the property of the government of the United States of America and may be revised or deleted at any time without prior notice.
Dissemination of this information without the expressed written consent of the Public Affairs Office, Tulsa District U.S. Army Corps of Engineers is strictly prohibited.
These data are gathered electronically and, as presented, have not undergone any form of quality control. These data are not guaranteed to be valid or correct.
Go to home page.
Go to station list.

Upstream stations:

Downstream station:
Previous Day
Next Day
Current Day
    
SHEF ID:       TLSO2     Arkansas River at Tulsa, OK
STATION TYPE:  

               PRECIP     STAGE  STAGE(2)  RIV-FLOW  WTR-TEMP   DIS-OXY  BAT-LOAD
                   in        ft        ft       cfs         F      mg/l      volt
              Ccp-Rev   Ccp-Rev   Ccp-Rev   Ccp-Rev   Ccp-Rev   Ccp-Rev   Ccp-Rev
(US/Central)
06/13 00:00      0.00      4.92      ----     11894     73.54      5.03     12.65
06/13 01:00      0.00      4.92      ----     11894     73.47      4.86     12.65
06/13 02:00      0.00      4.93      ----     11946     73.31      4.84     12.57
06/13 03:00      0.00      4.89      ----     11740     73.17      4.57     12.57
06/13 04:00      0.00      4.73      ----     10936     73.06      4.58     12.57
06/13 05:00      0.00      4.42      ----      9426     72.73      4.31     12.57
06/13 06:00      0.00      4.07      ----      7745     72.73      4.39     12.57
06/13 07:00      0.00      3.72      ----      6064     72.72      4.57     12.57
06/13 08:00      0.00      3.40      ----      4656     72.79      4.71     12.57
06/13 09:00      0.00      3.15      ----      3851     73.08      5.09     12.81
06/13 10:00      0.00      2.94      ----      3249     73.98      5.52     13.13
06/13 11:00      0.00      2.80      ----      2885     75.13      6.15     13.05
06/13 12:00      0.00      2.91      ----      3169     76.64      6.55     13.05
06/13 13:00      0.00      3.62      ----      5584     79.29      7.02     13.05
06/13 14:00      0.00      4.29      ----      8802     79.36      7.08     13.05
06/13 15:00      0.00      4.63      ----     10446     79.16      6.70     13.05
06/13 16:00      0.00      4.80      ----     11284     79.59      6.77     13.37
06/13 17:00      0.00      4.87      ----     11638     79.77      6.79     13.29
06/13 18:00      0.00      4.90      ----     11792     80.40      6.93     13.21
06/13 19:00      0.00      4.91      ----     11843     79.59      6.37     12.97
06/13 20:00      0.00      4.92      ----     11894     79.16      6.32     12.81
06/13 21:00      0.00      4.93      ----     11946     78.89      6.08     12.65
06/13 22:00      0.00      4.93      ----     11946     78.17      5.60     12.65
06/13 23:00      0.00      4.92      ----     11894     76.96      5.27     12.65